sensor_id;sensor_type;location;lat;lon;timestamp;temperature;humidity
22450;DHT22;11392;57.390;-2.468;2024-03-02T00:00:39;3.50;99.90
22450;DHT22;11392;57.390;-2.468;2024-03-02T00:03:07;3.40;99.90
22450;DHT22;11392;57.390;-2.468;2024-03-02T00:05:37;3.30;99.90
22450;DHT22;11392;57.390;-2.468;2024-03-02T00:08:05;3.20;99.90
22450;DHT22;11392;57.390;-2.468;2024-03-02T00:10:38;3.20;99.90
22450;DHT22;11392;57.390;-2.468;2024-03-02T00:13:08;3.30;99.90
22450;DHT22;11392;57.390;-2.468;2024-03-02T00:15:50;3.30;99.90
22450;DHT22;11392;57.390;-2.468;2024-03-02T00:18:32;3.50;99.90
22450;DHT22;11392;57.390;-2.468;2024-03-02T00:21:00;3.70;99.90
22450;DHT22;11392;57.390;-2.468;2024-03-02T00:23:30;3.70;99.90
22450;DHT22;11392;57.390;-2.468;2024-03-02T00:25:58;3.70;99.90
22450;DHT22;11392;57.390;-2.468;2024-03-02T00:28:34;3.70;99.90
22450;DHT22;11392;57.390;-2.468;2024-03-02T00:31:07;3.80;99.90
22450;DHT22;11392;57.390;-2.468;2024-03-02T00:33:47;3.80;99.90
22450;DHT22;11392;57.390;-2.468;2024-03-02T00:36:17;3.80;99.90
22450;DHT22;11392;57.390;-2.468;2024-03-02T00:38:52;3.80;99.90
22450;DHT22;11392;57.390;-2.468;2024-03-02T00:41:24;3.90;99.90
22450;DHT22;11392;57.390;-2.468;2024-03-02T00:43:58;3.90;99.90
22450;DHT22;11392;57.390;-2.468;2024-03-02T00:46:27;4.00;99.90
22450;DHT22;11392;57.390;-2.468;2024-03-02T00:48:58;3.90;99.90
22450;DHT22;11392;57.390;-2.468;2024-03-02T00:51:27;3.90;99.90
22450;DHT22;11392;57.390;-2.468;2024-03-02T00:53:59;4.00;99.90
22450;DHT22;11392;57.390;-2.468;2024-03-02T00:56:27;4.00;99.90
22450;DHT22;11392;57.390;-2.468;2024-03-02T00:58:54;4.00;99.90
22450;DHT22;11392;57.390;-2.468;2024-03-02T01:01:21;4.00;99.90
22450;DHT22;11392;57.390;-2.468;2024-03-02T01:03:49;4.10;99.90
22450;DHT22;11392;57.390;-2.468;2024-03-02T01:06:17;4.10;99.90
22450;DHT22;11392;57.390;-2.468;2024-03-02T01:08:45;4.10;99.90
22450;DHT22;11392;57.390;-2.468;2024-03-02T01:11:12;4.20;99.90
22450;DHT22;11392;57.390;-2.468;2024-03-02T01:13:39;4.30;99.90
22450;DHT22;11392;57.390;-2.468;2024-03-02T01:16:07;4.30;99.90
22450;DHT22;11392;57.390;-2.468;2024-03-02T01:18:34;4.30;99.90
22450;DHT22;11392;57.390;-2.468;2024-03-02T01:21:01;4.30;99.90
22450;DHT22;11392;57.390;-2.468;2024-03-02T01:23:28;4.20;99.90
22450;DHT22;11392;57.390;-2.468;2024-03-02T01:25:56;4.30;99.90
22450;DHT22;11392;57.390;-2.468;2024-03-02T01:28:23;4.20;99.90
22450;DHT22;11392;57.390;-2.468;2024-03-02T01:30:50;4.30;99.90
22450;DHT22;11392;57.390;-2.468;2024-03-02T01:33:17;4.30;99.90
22450;DHT22;11392;57.390;-2.468;2024-03-02T01:35:45;4.40;99.90
22450;DHT22;11392;57.390;-2.468;2024-03-02T01:38:12;4.40;99.90
22450;DHT22;11392;57.390;-2.468;2024-03-02T01:40:39;4.40;99.90
22450;DHT22;11392;57.390;-2.468;2024-03-02T01:43:06;4.50;99.90
22450;DHT22;11392;57.390;-2.468;2024-03-02T01:45:35;4.50;99.90
22450;DHT22;11392;57.390;-2.468;2024-03-02T01:48:07;4.40;99.90
22450;DHT22;11392;57.390;-2.468;2024-03-02T01:50:35;4.40;99.90
22450;DHT22;11392;57.390;-2.468;2024-03-02T01:53:03;4.40;99.90
22450;DHT22;11392;57.390;-2.468;2024-03-02T01:55:30;4.40;99.90
22450;DHT22;11392;57.390;-2.468;2024-03-02T01:57:58;4.40;99.90
22450;DHT22;11392;57.390;-2.468;2024-03-02T02:00:26;4.30;99.90
22450;DHT22;11392;57.390;-2.468;2024-03-02T02:02:54;4.30;99.90
22450;DHT22;11392;57.390;-2.468;2024-03-02T02:05:21;4.30;99.90
22450;DHT22;11392;57.390;-2.468;2024-03-02T02:07:49;4.30;99.90
22450;DHT22;11392;57.390;-2.468;2024-03-02T02:10:17;4.20;99.90
22450;DHT22;11392;57.390;-2.468;2024-03-02T02:12:44;4.20;99.90
22450;DHT22;11392;57.390;-2.468;2024-03-02T02:15:28;4.20;99.90
22450;DHT22;11392;57.390;-2.468;2024-03-02T02:17:57;4.30;99.90
22450;DHT22;11392;57.390;-2.468;2024-03-02T02:20:25;4.20;99.90
22450;DHT22;11392;57.390;-2.468;2024-03-02T02:23:02;4.20;99.90
22450;DHT22;11392;57.390;-2.468;2024-03-02T02:25:30;4.20;99.90
22450;DHT22;11392;57.390;-2.468;2024-03-02T02:27:57;4.30;99.90
22450;DHT22;11392;57.390;-2.468;2024-03-02T02:30:30;4.20;99.90
22450;DHT22;11392;57.390;-2.468;2024-03-02T02:32:58;4.20;99.90
22450;DHT22;11392;57.390;-2.468;2024-03-02T02:35:26;4.20;99.90
22450;DHT22;11392;57.390;-2.468;2024-03-02T02:37:54;4.20;99.90
22450;DHT22;11392;57.390;-2.468;2024-03-02T02:40:22;4.20;99.90
22450;DHT22;11392;57.390;-2.468;2024-03-02T02:42:49;4.20;99.90
22450;DHT22;11392;57.390;-2.468;2024-03-02T02:45:18;4.20;99.90
22450;DHT22;11392;57.390;-2.468;2024-03-02T02:47:46;4.20;99.90
22450;DHT22;11392;57.390;-2.468;2024-03-02T02:50:13;4.20;99.90
22450;DHT22;11392;57.390;-2.468;2024-03-02T02:52:41;4.30;99.90
22450;DHT22;11392;57.390;-2.468;2024-03-02T02:55:10;4.30;99.90
22450;DHT22;11392;57.390;-2.468;2024-03-02T02:57:40;4.20;99.90
22450;DHT22;11392;57.390;-2.468;2024-03-02T03:00:11;4.20;99.90
22450;DHT22;11392;57.390;-2.468;2024-03-02T03:02:48;4.30;99.90
22450;DHT22;11392;57.390;-2.468;2024-03-02T03:05:18;4.30;99.90
22450;DHT22;11392;57.390;-2.468;2024-03-02T03:07:45;4.30;99.90
22450;DHT22;11392;57.390;-2.468;2024-03-02T03:10:13;4.30;99.90
22450;DHT22;11392;57.390;-2.468;2024-03-02T03:12:42;4.40;99.90
22450;DHT22;11392;57.390;-2.468;2024-03-02T03:15:12;4.50;99.90
22450;DHT22;11392;57.390;-2.468;2024-03-02T03:17:40;4.50;99.90
22450;DHT22;11392;57.390;-2.468;2024-03-02T03:20:08;4.40;99.90
22450;DHT22;11392;57.390;-2.468;2024-03-02T03:22:38;4.40;99.90
22450;DHT22;11392;57.390;-2.468;2024-03-02T03:25:06;4.30;99.90
22450;DHT22;11392;57.390;-2.468;2024-03-02T03:27:35;4.30;99.90
22450;DHT22;11392;57.390;-2.468;2024-03-02T03:30:03;4.30;99.90
22450;DHT22;11392;57.390;-2.468;2024-03-02T03:32:30;4.30;99.90
22450;DHT22;11392;57.390;-2.468;2024-03-02T03:34:57;4.30;99.90
22450;DHT22;11392;57.390;-2.468;2024-03-02T03:37:25;4.30;99.90
22450;DHT22;11392;57.390;-2.468;2024-03-02T03:39:54;4.30;99.90
22450;DHT22;11392;57.390;-2.468;2024-03-02T03:42:22;4.40;99.90
22450;DHT22;11392;57.390;-2.468;2024-03-02T03:44:49;4.30;99.90
22450;DHT22;11392;57.390;-2.468;2024-03-02T03:47:17;4.30;99.90
22450;DHT22;11392;57.390;-2.468;2024-03-02T03:49:44;4.40;99.90
22450;DHT22;11392;57.390;-2.468;2024-03-02T03:52:11;4.40;99.90
22450;DHT22;11392;57.390;-2.468;2024-03-02T03:54:38;4.40;99.90
22450;DHT22;11392;57.390;-2.468;2024-03-02T03:57:05;4.40;99.90
22450;DHT22;11392;57.390;-2.468;2024-03-02T03:59:33;4.30;99.90
22450;DHT22;11392;57.390;-2.468;2024-03-02T04:02:00;4.30;99.90
22450;DHT22;11392;57.390;-2.468;2024-03-02T04:04:27;4.30;99.90
22450;DHT22;11392;57.390;-2.468;2024-03-02T04:06:54;4.30;99.90
22450;DHT22;11392;57.390;-2.468;2024-03-02T04:09:21;4.30;99.90
22450;DHT22;11392;57.390;-2.468;2024-03-02T04:11:48;4.30;99.90
22450;DHT22;11392;57.390;-2.468;2024-03-02T04:14:16;4.30;99.90
22450;DHT22;11392;57.390;-2.468;2024-03-02T04:16:43;4.30;99.90
22450;DHT22;11392;57.390;-2.468;2024-03-02T04:19:10;4.40;99.90
22450;DHT22;11392;57.390;-2.468;2024-03-02T04:21:37;4.50;99.90
22450;DHT22;11392;57.390;-2.468;2024-03-02T04:24:05;4.50;99.90
22450;DHT22;11392;57.390;-2.468;2024-03-02T04:26:32;4.50;99.90
22450;DHT22;11392;57.390;-2.468;2024-03-02T04:28:59;4.30;99.90
22450;DHT22;11392;57.390;-2.468;2024-03-02T04:31:26;4.20;99.90
22450;DHT22;11392;57.390;-2.468;2024-03-02T04:33:53;4.10;99.90
22450;DHT22;11392;57.390;-2.468;2024-03-02T04:36:21;4.20;99.90
22450;DHT22;11392;57.390;-2.468;2024-03-02T04:38:49;4.20;99.90
22450;DHT22;11392;57.390;-2.468;2024-03-02T04:41:16;4.30;99.90
22450;DHT22;11392;57.390;-2.468;2024-03-02T04:43:43;4.40;99.90
22450;DHT22;11392;57.390;-2.468;2024-03-02T04:46:10;4.50;99.90
22450;DHT22;11392;57.390;-2.468;2024-03-02T04:48:38;4.30;99.90
22450;DHT22;11392;57.390;-2.468;2024-03-02T04:51:07;4.10;99.90
22450;DHT22;11392;57.390;-2.468;2024-03-02T04:53:34;4.20;99.90
22450;DHT22;11392;57.390;-2.468;2024-03-02T04:56:01;4.20;99.90
22450;DHT22;11392;57.390;-2.468;2024-03-02T04:58:34;4.20;99.90
22450;DHT22;11392;57.390;-2.468;2024-03-02T05:01:01;4.20;99.90
22450;DHT22;11392;57.390;-2.468;2024-03-02T05:03:28;4.20;99.90
22450;DHT22;11392;57.390;-2.468;2024-03-02T05:05:55;4.20;99.90
22450;DHT22;11392;57.390;-2.468;2024-03-02T05:08:23;4.20;99.90
22450;DHT22;11392;57.390;-2.468;2024-03-02T05:10:50;4.30;99.90
22450;DHT22;11392;57.390;-2.468;2024-03-02T05:13:17;4.30;99.90
22450;DHT22;11392;57.390;-2.468;2024-03-02T05:15:44;4.30;99.90
22450;DHT22;11392;57.390;-2.468;2024-03-02T05:18:11;4.30;99.90
22450;DHT22;11392;57.390;-2.468;2024-03-02T05:20:39;4.30;99.90
22450;DHT22;11392;57.390;-2.468;2024-03-02T05:23:06;4.30;99.90
22450;DHT22;11392;57.390;-2.468;2024-03-02T05:25:33;4.30;99.90
22450;DHT22;11392;57.390;-2.468;2024-03-02T05:28:02;4.30;99.90
22450;DHT22;11392;57.390;-2.468;2024-03-02T05:30:29;4.30;99.90
22450;DHT22;11392;57.390;-2.468;2024-03-02T05:32:56;4.30;99.90
22450;DHT22;11392;57.390;-2.468;2024-03-02T05:35:23;4.30;99.90
22450;DHT22;11392;57.390;-2.468;2024-03-02T05:37:50;4.30;99.90
22450;DHT22;11392;57.390;-2.468;2024-03-02T05:40:17;4.30;99.90
22450;DHT22;11392;57.390;-2.468;2024-03-02T05:42:47;4.30;99.90
22450;DHT22;11392;57.390;-2.468;2024-03-02T05:45:14;4.40;99.90
22450;DHT22;11392;57.390;-2.468;2024-03-02T05:47:43;4.40;99.90
22450;DHT22;11392;57.390;-2.468;2024-03-02T05:50:10;4.40;99.90
22450;DHT22;11392;57.390;-2.468;2024-03-02T05:52:37;4.40;99.90
22450;DHT22;11392;57.390;-2.468;2024-03-02T05:55:06;4.50;99.90
22450;DHT22;11392;57.390;-2.468;2024-03-02T05:57:33;4.50;99.90
22450;DHT22;11392;57.390;-2.468;2024-03-02T06:00:16;4.50;99.90
22450;DHT22;11392;57.390;-2.468;2024-03-02T06:02:44;4.40;99.90
22450;DHT22;11392;57.390;-2.468;2024-03-02T06:05:12;4.30;99.90
22450;DHT22;11392;57.390;-2.468;2024-03-02T06:07:39;4.30;99.90
22450;DHT22;11392;57.390;-2.468;2024-03-02T06:10:07;4.20;99.90
22450;DHT22;11392;57.390;-2.468;2024-03-02T06:12:40;4.30;99.90
22450;DHT22;11392;57.390;-2.468;2024-03-02T06:15:07;4.30;99.90
22450;DHT22;11392;57.390;-2.468;2024-03-02T06:17:37;4.30;99.90
22450;DHT22;11392;57.390;-2.468;2024-03-02T06:20:05;4.30;99.90
22450;DHT22;11392;57.390;-2.468;2024-03-02T06:22:35;4.30;99.90
22450;DHT22;11392;57.390;-2.468;2024-03-02T06:25:02;4.30;99.90
22450;DHT22;11392;57.390;-2.468;2024-03-02T06:27:29;4.30;99.90
22450;DHT22;11392;57.390;-2.468;2024-03-02T06:29:57;4.40;99.90
22450;DHT22;11392;57.390;-2.468;2024-03-02T06:32:24;4.30;99.90
22450;DHT22;11392;57.390;-2.468;2024-03-02T06:34:52;4.30;99.90
22450;DHT22;11392;57.390;-2.468;2024-03-02T06:37:19;4.30;99.90
22450;DHT22;11392;57.390;-2.468;2024-03-02T06:39:46;4.30;99.90
22450;DHT22;11392;57.390;-2.468;2024-03-02T06:42:13;4.30;99.90
22450;DHT22;11392;57.390;-2.468;2024-03-02T06:44:40;4.30;99.90
22450;DHT22;11392;57.390;-2.468;2024-03-02T06:47:07;4.20;99.90
22450;DHT22;11392;57.390;-2.468;2024-03-02T06:49:34;4.20;99.90
22450;DHT22;11392;57.390;-2.468;2024-03-02T06:52:02;4.10;99.90
22450;DHT22;11392;57.390;-2.468;2024-03-02T06:54:29;4.10;99.90
22450;DHT22;11392;57.390;-2.468;2024-03-02T06:56:56;4.10;99.90
22450;DHT22;11392;57.390;-2.468;2024-03-02T06:59:23;4.20;99.90
22450;DHT22;11392;57.390;-2.468;2024-03-02T07:01:51;4.20;99.90
22450;DHT22;11392;57.390;-2.468;2024-03-02T07:04:19;4.20;99.90
22450;DHT22;11392;57.390;-2.468;2024-03-02T07:06:46;4.20;99.90
22450;DHT22;11392;57.390;-2.468;2024-03-02T07:09:13;4.20;99.90
22450;DHT22;11392;57.390;-2.468;2024-03-02T07:11:40;4.20;99.90
22450;DHT22;11392;57.390;-2.468;2024-03-02T07:14:08;4.20;99.90
22450;DHT22;11392;57.390;-2.468;2024-03-02T07:16:37;4.20;99.90
22450;DHT22;11392;57.390;-2.468;2024-03-02T07:19:05;4.20;99.90
22450;DHT22;11392;57.390;-2.468;2024-03-02T07:21:33;4.20;99.90
22450;DHT22;11392;57.390;-2.468;2024-03-02T07:24:00;4.20;99.90
22450;DHT22;11392;57.390;-2.468;2024-03-02T07:26:30;4.20;99.90
22450;DHT22;11392;57.390;-2.468;2024-03-02T07:29:01;4.20;99.90
22450;DHT22;11392;57.390;-2.468;2024-03-02T07:31:28;4.20;99.90
22450;DHT22;11392;57.390;-2.468;2024-03-02T07:33:55;4.20;99.90
22450;DHT22;11392;57.390;-2.468;2024-03-02T07:36:22;4.20;99.90
22450;DHT22;11392;57.390;-2.468;2024-03-02T07:38:50;4.20;99.90
22450;DHT22;11392;57.390;-2.468;2024-03-02T07:41:17;4.20;99.90
22450;DHT22;11392;57.390;-2.468;2024-03-02T07:43:44;4.20;99.90
22450;DHT22;11392;57.390;-2.468;2024-03-02T07:46:12;4.20;99.90
22450;DHT22;11392;57.390;-2.468;2024-03-02T07:48:39;4.30;99.90
22450;DHT22;11392;57.390;-2.468;2024-03-02T07:51:07;4.30;99.90
22450;DHT22;11392;57.390;-2.468;2024-03-02T07:53:34;4.30;99.90
22450;DHT22;11392;57.390;-2.468;2024-03-02T07:56:03;4.30;99.90
22450;DHT22;11392;57.390;-2.468;2024-03-02T07:58:31;4.30;99.90
22450;DHT22;11392;57.390;-2.468;2024-03-02T08:00:58;4.30;99.90
22450;DHT22;11392;57.390;-2.468;2024-03-02T08:03:28;4.30;99.90
22450;DHT22;11392;57.390;-2.468;2024-03-02T08:05:56;4.40;99.90
22450;DHT22;11392;57.390;-2.468;2024-03-02T08:08:23;4.30;99.90
22450;DHT22;11392;57.390;-2.468;2024-03-02T08:10:50;4.20;99.90
22450;DHT22;11392;57.390;-2.468;2024-03-02T08:13:17;4.30;99.90
22450;DHT22;11392;57.390;-2.468;2024-03-02T08:15:44;4.30;99.90
22450;DHT22;11392;57.390;-2.468;2024-03-02T08:18:11;4.30;99.90
22450;DHT22;11392;57.390;-2.468;2024-03-02T08:20:38;4.40;99.90
22450;DHT22;11392;57.390;-2.468;2024-03-02T08:23:05;4.40;99.90
22450;DHT22;11392;57.390;-2.468;2024-03-02T08:25:32;4.30;99.90
22450;DHT22;11392;57.390;-2.468;2024-03-02T08:27:59;4.20;99.90
22450;DHT22;11392;57.390;-2.468;2024-03-02T08:30:27;4.10;99.90
22450;DHT22;11392;57.390;-2.468;2024-03-02T08:32:54;4.10;99.90
22450;DHT22;11392;57.390;-2.468;2024-03-02T08:35:21;4.10;99.90
22450;DHT22;11392;57.390;-2.468;2024-03-02T08:37:49;4.10;99.90
22450;DHT22;11392;57.390;-2.468;2024-03-02T08:40:16;4.10;99.90
22450;DHT22;11392;57.390;-2.468;2024-03-02T08:42:45;4.20;99.90
22450;DHT22;11392;57.390;-2.468;2024-03-02T08:45:12;4.40;99.90
22450;DHT22;11392;57.390;-2.468;2024-03-02T08:47:40;4.30;99.90
22450;DHT22;11392;57.390;-2.468;2024-03-02T08:50:08;4.30;99.90
22450;DHT22;11392;57.390;-2.468;2024-03-02T08:52:35;4.40;99.90
22450;DHT22;11392;57.390;-2.468;2024-03-02T08:55:03;4.40;99.90
22450;DHT22;11392;57.390;-2.468;2024-03-02T08:57:31;4.40;99.90
22450;DHT22;11392;57.390;-2.468;2024-03-02T08:59:59;4.40;99.90
22450;DHT22;11392;57.390;-2.468;2024-03-02T09:02:26;4.30;99.90
22450;DHT22;11392;57.390;-2.468;2024-03-02T09:04:53;4.30;99.90
22450;DHT22;11392;57.390;-2.468;2024-03-02T09:07:20;4.20;99.90
22450;DHT22;11392;57.390;-2.468;2024-03-02T09:09:47;4.30;99.90
22450;DHT22;11392;57.390;-2.468;2024-03-02T09:12:15;4.30;99.90
22450;DHT22;11392;57.390;-2.468;2024-03-02T09:14:43;4.30;99.90
22450;DHT22;11392;57.390;-2.468;2024-03-02T09:17:10;4.20;99.90
22450;DHT22;11392;57.390;-2.468;2024-03-02T09:19:40;4.30;99.90
22450;DHT22;11392;57.390;-2.468;2024-03-02T09:22:07;4.30;99.90
22450;DHT22;11392;57.390;-2.468;2024-03-02T09:24:34;4.30;99.90
22450;DHT22;11392;57.390;-2.468;2024-03-02T09:27:01;4.20;99.90
22450;DHT22;11392;57.390;-2.468;2024-03-02T09:29:28;4.20;99.90
22450;DHT22;11392;57.390;-2.468;2024-03-02T09:31:56;4.30;99.90
22450;DHT22;11392;57.390;-2.468;2024-03-02T09:34:23;4.40;99.90
22450;DHT22;11392;57.390;-2.468;2024-03-02T09:36:51;4.40;99.90
22450;DHT22;11392;57.390;-2.468;2024-03-02T09:39:19;4.50;99.90
22450;DHT22;11392;57.390;-2.468;2024-03-02T09:41:47;4.50;99.90
22450;DHT22;11392;57.390;-2.468;2024-03-02T09:44:15;4.50;99.90
22450;DHT22;11392;57.390;-2.468;2024-03-02T09:46:42;4.50;99.90
22450;DHT22;11392;57.390;-2.468;2024-03-02T09:49:11;4.40;99.90
22450;DHT22;11392;57.390;-2.468;2024-03-02T09:51:39;4.30;99.90
22450;DHT22;11392;57.390;-2.468;2024-03-02T09:54:07;4.30;99.90
22450;DHT22;11392;57.390;-2.468;2024-03-02T09:56:47;4.30;99.90
22450;DHT22;11392;57.390;-2.468;2024-03-02T09:59:14;4.30;99.90
22450;DHT22;11392;57.390;-2.468;2024-03-02T10:01:58;4.40;99.90
22450;DHT22;11392;57.390;-2.468;2024-03-02T10:04:26;4.30;99.90
22450;DHT22;11392;57.390;-2.468;2024-03-02T10:07:12;4.30;99.90
22450;DHT22;11392;57.390;-2.468;2024-03-02T10:09:41;4.30;99.90
22450;DHT22;11392;57.390;-2.468;2024-03-02T10:12:10;4.20;99.90
22450;DHT22;11392;57.390;-2.468;2024-03-02T10:14:39;4.30;99.90
22450;DHT22;11392;57.390;-2.468;2024-03-02T10:17:11;4.30;99.90
22450;DHT22;11392;57.390;-2.468;2024-03-02T10:19:39;4.30;99.90
22450;DHT22;11392;57.390;-2.468;2024-03-02T10:22:08;4.30;99.90
22450;DHT22;11392;57.390;-2.468;2024-03-02T10:24:45;4.30;99.90
22450;DHT22;11392;57.390;-2.468;2024-03-02T10:27:39;4.30;99.90
22450;DHT22;11392;57.390;-2.468;2024-03-02T10:30:07;4.10;99.90
22450;DHT22;11392;57.390;-2.468;2024-03-02T10:32:38;4.10;99.90
22450;DHT22;11392;57.390;-2.468;2024-03-02T10:35:06;4.00;99.90
22450;DHT22;11392;57.390;-2.468;2024-03-02T10:37:33;4.00;99.90
22450;DHT22;11392;57.390;-2.468;2024-03-02T10:40:05;3.90;99.90
22450;DHT22;11392;57.390;-2.468;2024-03-02T10:42:32;3.70;99.90
22450;DHT22;11392;57.390;-2.468;2024-03-02T10:44:59;3.70;99.90
22450;DHT22;11392;57.390;-2.468;2024-03-02T10:47:27;3.60;99.90
22450;DHT22;11392;57.390;-2.468;2024-03-02T10:49:57;3.50;99.90
22450;DHT22;11392;57.390;-2.468;2024-03-02T10:52:26;3.50;99.90
22450;DHT22;11392;57.390;-2.468;2024-03-02T10:54:53;3.50;99.90
22450;DHT22;11392;57.390;-2.468;2024-03-02T10:57:21;3.40;99.90
22450;DHT22;11392;57.390;-2.468;2024-03-02T10:59:56;3.40;99.90
22450;DHT22;11392;57.390;-2.468;2024-03-02T11:02:24;3.50;99.90
22450;DHT22;11392;57.390;-2.468;2024-03-02T11:04:55;3.50;99.90
22450;DHT22;11392;57.390;-2.468;2024-03-02T11:07:23;3.60;99.90
22450;DHT22;11392;57.390;-2.468;2024-03-02T11:09:57;3.60;99.90
22450;DHT22;11392;57.390;-2.468;2024-03-02T11:12:31;3.60;99.90
22450;DHT22;11392;57.390;-2.468;2024-03-02T11:15:00;3.60;99.90
22450;DHT22;11392;57.390;-2.468;2024-03-02T11:17:28;3.60;99.90
22450;DHT22;11392;57.390;-2.468;2024-03-02T11:19:57;3.60;99.90
22450;DHT22;11392;57.390;-2.468;2024-03-02T11:22:25;3.70;99.90
22450;DHT22;11392;57.390;-2.468;2024-03-02T11:24:53;3.60;99.90
22450;DHT22;11392;57.390;-2.468;2024-03-02T11:28:01;3.60;99.90
22450;DHT22;11392;57.390;-2.468;2024-03-02T11:33:04;3.60;99.90
22450;DHT22;11392;57.390;-2.468;2024-03-02T11:35:42;3.50;99.90
22450;DHT22;11392;57.390;-2.468;2024-03-02T11:38:10;3.40;99.90
22450;DHT22;11392;57.390;-2.468;2024-03-02T11:40:41;3.40;99.90
22450;DHT22;11392;57.390;-2.468;2024-03-02T11:43:09;3.40;99.90
22450;DHT22;11392;57.390;-2.468;2024-03-02T11:45:37;3.50;99.90
22450;DHT22;11392;57.390;-2.468;2024-03-02T11:48:14;3.50;99.90
22450;DHT22;11392;57.390;-2.468;2024-03-02T11:50:50;3.50;99.90
22450;DHT22;11392;57.390;-2.468;2024-03-02T11:53:19;3.50;99.90
22450;DHT22;11392;57.390;-2.468;2024-03-02T11:55:46;3.30;99.90
22450;DHT22;11392;57.390;-2.468;2024-03-02T11:58:15;3.10;99.90
22450;DHT22;11392;57.390;-2.468;2024-03-02T12:00:50;3.20;99.90
22450;DHT22;11392;57.390;-2.468;2024-03-02T12:03:23;3.40;99.90
22450;DHT22;11392;57.390;-2.468;2024-03-02T12:05:55;3.60;99.90
22450;DHT22;11392;57.390;-2.468;2024-03-02T12:08:22;3.70;99.90
22450;DHT22;11392;57.390;-2.468;2024-03-02T12:11:01;3.90;99.90
22450;DHT22;11392;57.390;-2.468;2024-03-02T12:13:30;4.00;99.90
22450;DHT22;11392;57.390;-2.468;2024-03-02T12:15:58;4.20;99.90
22450;DHT22;11392;57.390;-2.468;2024-03-02T12:18:26;4.40;99.90
22450;DHT22;11392;57.390;-2.468;2024-03-02T12:20:54;4.50;99.90
22450;DHT22;11392;57.390;-2.468;2024-03-02T12:23:25;4.70;99.90
22450;DHT22;11392;57.390;-2.468;2024-03-02T12:25:52;4.90;99.90
22450;DHT22;11392;57.390;-2.468;2024-03-02T12:28:19;5.20;99.90
22450;DHT22;11392;57.390;-2.468;2024-03-02T12:30:46;5.50;99.90
22450;DHT22;11392;57.390;-2.468;2024-03-02T12:33:15;5.70;99.90
22450;DHT22;11392;57.390;-2.468;2024-03-02T12:35:42;6.00;99.90
22450;DHT22;11392;57.390;-2.468;2024-03-02T12:38:09;6.40;99.90
22450;DHT22;11392;57.390;-2.468;2024-03-02T12:40:38;6.90;99.90
22450;DHT22;11392;57.390;-2.468;2024-03-02T12:43:06;7.40;99.90
22450;DHT22;11392;57.390;-2.468;2024-03-02T12:45:34;8.00;99.90
22450;DHT22;11392;57.390;-2.468;2024-03-02T12:48:03;8.70;99.90
22450;DHT22;11392;57.390;-2.468;2024-03-02T12:50:32;9.00;99.90
22450;DHT22;11392;57.390;-2.468;2024-03-02T12:53:00;9.50;99.90
22450;DHT22;11392;57.390;-2.468;2024-03-02T12:55:28;10.00;99.90
22450;DHT22;11392;57.390;-2.468;2024-03-02T12:57:56;10.50;99.90
22450;DHT22;11392;57.390;-2.468;2024-03-02T13:00:24;10.50;99.90
22450;DHT22;11392;57.390;-2.468;2024-03-02T13:02:51;11.10;99.90
22450;DHT22;11392;57.390;-2.468;2024-03-02T13:05:19;11.20;99.90
22450;DHT22;11392;57.390;-2.468;2024-03-02T13:07:47;11.30;99.90
22450;DHT22;11392;57.390;-2.468;2024-03-02T13:10:16;11.40;99.90
22450;DHT22;11392;57.390;-2.468;2024-03-02T13:12:43;11.00;99.90
22450;DHT22;11392;57.390;-2.468;2024-03-02T13:15:12;10.40;99.90
22450;DHT22;11392;57.390;-2.468;2024-03-02T13:17:44;9.70;99.90
22450;DHT22;11392;57.390;-2.468;2024-03-02T13:20:13;9.10;99.90
22450;DHT22;11392;57.390;-2.468;2024-03-02T13:22:41;8.90;99.90
22450;DHT22;11392;57.390;-2.468;2024-03-02T13:25:09;8.50;99.90
22450;DHT22;11392;57.390;-2.468;2024-03-02T13:27:38;8.60;99.90
22450;DHT22;11392;57.390;-2.468;2024-03-02T13:30:07;8.40;99.90
22450;DHT22;11392;57.390;-2.468;2024-03-02T13:32:36;8.30;99.90
22450;DHT22;11392;57.390;-2.468;2024-03-02T13:35:04;8.40;99.90
22450;DHT22;11392;57.390;-2.468;2024-03-02T13:37:32;8.40;99.90
22450;DHT22;11392;57.390;-2.468;2024-03-02T13:39:59;8.40;99.90
22450;DHT22;11392;57.390;-2.468;2024-03-02T13:42:26;8.50;99.90
22450;DHT22;11392;57.390;-2.468;2024-03-02T13:44:54;8.60;99.90
22450;DHT22;11392;57.390;-2.468;2024-03-02T13:47:22;9.00;99.90
22450;DHT22;11392;57.390;-2.468;2024-03-02T13:49:49;9.10;99.90
22450;DHT22;11392;57.390;-2.468;2024-03-02T13:52:16;8.60;99.90
22450;DHT22;11392;57.390;-2.468;2024-03-02T13:54:45;8.40;99.90
22450;DHT22;11392;57.390;-2.468;2024-03-02T13:57:13;8.00;99.90
22450;DHT22;11392;57.390;-2.468;2024-03-02T13:59:41;7.90;99.90
22450;DHT22;11392;57.390;-2.468;2024-03-02T14:02:09;7.80;99.90
22450;DHT22;11392;57.390;-2.468;2024-03-02T14:04:37;7.90;99.90
22450;DHT22;11392;57.390;-2.468;2024-03-02T14:07:06;8.00;99.90
22450;DHT22;11392;57.390;-2.468;2024-03-02T14:09:38;8.00;99.90
22450;DHT22;11392;57.390;-2.468;2024-03-02T14:12:05;8.00;99.90
22450;DHT22;11392;57.390;-2.468;2024-03-02T14:14:32;7.90;99.90
22450;DHT22;11392;57.390;-2.468;2024-03-02T14:17:00;8.10;99.90
22450;DHT22;11392;57.390;-2.468;2024-03-02T14:19:30;8.20;99.90
22450;DHT22;11392;57.390;-2.468;2024-03-02T14:21:58;8.40;99.90
22450;DHT22;11392;57.390;-2.468;2024-03-02T14:24:26;8.70;99.90
22450;DHT22;11392;57.390;-2.468;2024-03-02T14:26:55;8.60;99.90
22450;DHT22;11392;57.390;-2.468;2024-03-02T14:29:36;8.70;99.90
22450;DHT22;11392;57.390;-2.468;2024-03-02T14:32:05;8.50;99.90
22450;DHT22;11392;57.390;-2.468;2024-03-02T14:34:32;8.40;99.90
22450;DHT22;11392;57.390;-2.468;2024-03-02T14:37:02;8.20;99.90
22450;DHT22;11392;57.390;-2.468;2024-03-02T14:39:30;8.10;99.90
22450;DHT22;11392;57.390;-2.468;2024-03-02T14:42:01;8.60;99.90
22450;DHT22;11392;57.390;-2.468;2024-03-02T14:44:29;9.00;99.90
22450;DHT22;11392;57.390;-2.468;2024-03-02T14:46:56;9.30;99.90
22450;DHT22;11392;57.390;-2.468;2024-03-02T14:49:26;9.60;99.90
22450;DHT22;11392;57.390;-2.468;2024-03-02T14:51:53;9.80;99.90
22450;DHT22;11392;57.390;-2.468;2024-03-02T14:54:20;10.00;99.90
22450;DHT22;11392;57.390;-2.468;2024-03-02T14:56:47;10.20;99.90
22450;DHT22;11392;57.390;-2.468;2024-03-02T14:59:15;10.40;99.90
22450;DHT22;11392;57.390;-2.468;2024-03-02T15:01:42;10.60;99.90
22450;DHT22;11392;57.390;-2.468;2024-03-02T15:04:10;10.20;99.90
22450;DHT22;11392;57.390;-2.468;2024-03-02T15:06:37;10.40;99.90
22450;DHT22;11392;57.390;-2.468;2024-03-02T15:09:04;10.30;99.90
22450;DHT22;11392;57.390;-2.468;2024-03-02T15:11:31;10.40;99.90
22450;DHT22;11392;57.390;-2.468;2024-03-02T15:13:59;10.50;99.90
22450;DHT22;11392;57.390;-2.468;2024-03-02T15:16:26;10.60;99.90
22450;DHT22;11392;57.390;-2.468;2024-03-02T15:18:55;10.50;99.90
22450;DHT22;11392;57.390;-2.468;2024-03-02T15:21:22;10.20;99.90
22450;DHT22;11392;57.390;-2.468;2024-03-02T15:23:52;10.10;99.90
22450;DHT22;11392;57.390;-2.468;2024-03-02T15:26:19;10.10;99.90
22450;DHT22;11392;57.390;-2.468;2024-03-02T15:28:47;10.30;99.90
22450;DHT22;11392;57.390;-2.468;2024-03-02T15:31:14;10.50;99.90
22450;DHT22;11392;57.390;-2.468;2024-03-02T15:33:41;10.30;99.90
22450;DHT22;11392;57.390;-2.468;2024-03-02T15:36:09;9.90;99.90
22450;DHT22;11392;57.390;-2.468;2024-03-02T15:38:36;9.60;99.90
22450;DHT22;11392;57.390;-2.468;2024-03-02T15:41:08;9.20;99.90